Main page
METAR-TAF:

METAR-TAF

Airports :

Quatro de Fevereiro Airport

Luanda, Angola

latitude: 08-51S, longitude: 013-14E, elevation: 74 m

Current weather observation

The report was made 13 minutes ago, at 22:00 UTC
Wind 2 kt from variable directions
Temperature 19°C
Humidity 88%
Pressure 1013 hPa
Visibility 10 km or more
no clouds below 1500 m and no cumulonimbus

METAR: FNLU 072200Z VRB02KT CAVOK 19/17 Q1013

Time: 23:13 (22:13 UTC)

Forecast

The report was made 5 hours and 13 minutes ago, at 17:00 UTC
Forecast valid from 07 at 18 UTC to 08 at 24 UTC
Wind 6 kt from the Southwest
Visibility 10 km or more
Scattered clouds at a height of 2000 ft
Probability 30% :
Temporary
from 08 at 03 UTC to 08 at 07 UTC
Visibility: 4000 m
mist
Becoming
from 08 at 10 UTC to 08 at 12 UTC
Wind 10 kt from the West

TAF: FNLU 071700Z 0718/0824 22006KT 9999 SCT020 PROB30 TEMPO 0803/0807 4000 BR BECMG 0810/0812 28010KT

Weather observations and forecasts of more than 4000 airports (METAR and TAF reports).

The available stations are represented by yellow and red dots on the map.

Hover mouse over dot to see the name of the station.

Then click to see weather observations and forecasts.

To change the map : click on the green buttons with a black cross to zoom in, on the green button with a dash to zoom out, or on the green arrows for adjacent maps.


METAR-TAF: